createdAt,value
2019-03-22T00:00:13.757Z,47.87
2019-03-22T00:02:42.370Z,47.70
2019-03-22T00:05:11.089Z,47.63
2019-03-22T00:07:39.745Z,48.00
2019-03-22T00:10:08.967Z,48.04
2019-03-22T00:12:37.590Z,47.92
2019-03-22T00:15:08.016Z,49.49
2019-03-22T00:17:36.636Z,49.26
2019-03-22T00:20:08.508Z,48.86
2019-03-22T00:22:37.164Z,48.62
2019-03-22T00:25:06.989Z,49.04
2019-03-22T00:27:35.614Z,49.27
2019-03-22T00:30:09.127Z,48.77
2019-03-22T00:32:37.819Z,48.34
2019-03-22T00:35:08.215Z,48.30
2019-03-22T00:37:36.876Z,48.31
2019-03-22T00:40:07.100Z,48.34
2019-03-22T00:42:35.721Z,48.33
2019-03-22T00:45:06.181Z,47.97
2019-03-22T00:47:34.805Z,48.86
2019-03-22T00:50:05.362Z,49.08
2019-03-22T00:52:34.018Z,48.93
2019-03-22T00:55:02.642Z,48.72
2019-03-22T00:57:31.257Z,48.87
2019-03-22T00:59:59.918Z,48.57
2019-03-22T01:02:28.543Z,48.92
2019-03-22T01:04:57.216Z,49.69
2019-03-22T01:07:25.881Z,50.18
2019-03-22T01:09:54.498Z,50.09
2019-03-22T01:12:23.111Z,50.27
2019-03-22T01:14:51.757Z,49.93
2019-03-22T01:17:20.372Z,49.93
2019-03-22T01:19:48.995Z,49.74
2019-03-22T01:22:17.646Z,49.65
2019-03-22T01:24:46.335Z,49.61
2019-03-22T01:27:14.953Z,50.53
2019-03-22T01:29:43.613Z,50.53
2019-03-22T01:32:12.230Z,51.00
2019-03-22T01:34:40.846Z,50.32
2019-03-22T01:37:09.522Z,50.32
2019-03-22T01:39:38.137Z,50.12
2019-03-22T01:42:06.763Z,50.04
2019-03-22T01:44:35.419Z,49.97
2019-03-22T01:47:04.031Z,49.45
2019-03-22T01:49:32.646Z,49.59
2019-03-22T01:52:01.293Z,49.68
2019-03-22T01:54:29.905Z,50.89
2019-03-22T01:56:58.520Z,51.14
2019-03-22T01:59:27.192Z,52.24
2019-03-22T02:01:55.805Z,51.85
2019-03-22T02:04:24.418Z,51.52
2019-03-22T02:06:53.069Z,51.47
2019-03-22T02:09:21.696Z,53.29
2019-03-22T02:11:50.307Z,53.44
2019-03-22T02:14:18.952Z,52.17
2019-03-22T02:16:47.579Z,51.89
2019-03-22T02:19:16.194Z,52.07
2019-03-22T02:21:45.049Z,52.11
2019-03-22T02:24:13.676Z,51.51
2019-03-22T02:26:42.282Z,51.24
2019-03-22T02:29:10.931Z,52.31
2019-03-22T02:31:39.549Z,51.50
2019-03-22T02:34:08.166Z,51.19
2019-03-22T02:36:36.891Z,50.33
2019-03-22T02:39:06.808Z,51.32
2019-03-22T02:41:35.435Z,52.84
2019-03-22T02:44:04.094Z,51.45
2019-03-22T02:46:32.703Z,51.24
2019-03-22T02:49:01.332Z,51.03
2019-03-22T02:51:29.964Z,50.97
2019-03-22T02:53:58.506Z,49.92
2019-03-22T02:56:27.122Z,50.06
2019-03-22T02:58:59.130Z,49.95
2019-03-22T03:01:26.116Z,50.47
2019-03-22T03:03:54.728Z,52.43
2019-03-22T03:06:23.377Z,51.42
2019-03-22T03:08:51.995Z,50.88
2019-03-22T03:11:20.621Z,51.08
2019-03-22T03:13:49.271Z,51.62
2019-03-22T03:16:17.809Z,52.29
2019-03-22T03:18:46.426Z,53.00
2019-03-22T03:21:15.090Z,51.78
2019-03-22T03:23:43.701Z,51.29
2019-03-22T03:26:12.314Z,51.74
2019-03-22T03:28:40.964Z,51.47
2019-03-22T03:31:09.582Z,52.28
2019-03-22T03:33:38.208Z,52.37
2019-03-22T03:36:06.853Z,52.23
2019-03-22T03:38:35.409Z,52.06
2019-03-22T03:41:04.014Z,51.17
2019-03-22T03:43:32.675Z,51.07
2019-03-22T03:46:01.289Z,50.41
2019-03-22T03:48:29.914Z,50.54
2019-03-22T03:50:58.583Z,50.60
2019-03-22T03:53:27.212Z,51.04
2019-03-22T03:55:55.834Z,51.67
2019-03-22T03:58:24.472Z,51.88
2019-03-22T04:00:53.099Z,52.05
2019-03-22T04:03:21.720Z,51.80
2019-03-22T04:05:50.392Z,51.46
2019-03-22T04:08:19.028Z,51.92
2019-03-22T04:10:47.648Z,51.61
2019-03-22T04:13:16.306Z,51.42
2019-03-22T04:15:44.920Z,51.18
2019-03-22T04:18:13.533Z,50.91
2019-03-22T04:20:42.197Z,50.73
2019-03-22T04:23:10.822Z,50.98
2019-03-22T04:25:39.368Z,51.30
2019-03-22T04:28:08.051Z,51.55
2019-03-22T04:30:36.637Z,53.00
2019-03-22T04:33:06.838Z,53.01
2019-03-22T04:35:35.687Z,53.02
2019-03-22T04:38:04.306Z,52.42
2019-03-22T04:40:32.936Z,51.84
2019-03-22T04:43:01.726Z,53.57
2019-03-22T04:45:32.042Z,52.76
2019-03-22T04:48:06.629Z,52.32
2019-03-22T04:50:38.114Z,51.93
2019-03-22T04:53:09.375Z,52.51
2019-03-22T04:55:40.770Z,51.79
2019-03-22T04:58:11.095Z,51.47
2019-03-22T05:00:40.312Z,51.85
2019-03-22T05:03:10.167Z,52.90
2019-03-22T05:05:38.887Z,54.02
2019-03-22T05:08:08.604Z,54.31
2019-03-22T05:10:38.458Z,54.24
2019-03-22T05:13:09.951Z,55.26
2019-03-22T05:15:39.146Z,55.42
2019-03-22T05:18:08.513Z,55.19
2019-03-22T05:20:38.133Z,56.06
2019-03-22T05:23:07.266Z,55.69
2019-03-22T05:25:38.738Z,55.69
2019-03-22T05:28:09.740Z,55.04
2019-03-22T05:31:02.334Z,55.46
2019-03-22T05:33:30.961Z,55.77
2019-03-22T05:35:59.597Z,55.18
2019-03-22T05:38:28.245Z,55.38
2019-03-22T05:40:56.876Z,55.50
2019-03-22T05:43:25.486Z,54.33
2019-03-22T05:45:54.152Z,52.78
2019-03-22T05:48:22.770Z,52.22
2019-03-22T05:50:51.469Z,51.82
2019-03-22T05:53:20.133Z,51.82
2019-03-22T05:55:48.764Z,51.67
2019-03-22T05:58:17.384Z,53.66
2019-03-22T06:00:46.054Z,52.90
2019-03-22T06:03:14.687Z,52.72
2019-03-22T06:05:43.308Z,52.72
2019-03-22T06:08:11.966Z,54.14
2019-03-22T06:10:40.594Z,54.31
2019-03-22T06:13:09.214Z,54.31
2019-03-22T06:15:37.872Z,53.71
2019-03-22T06:18:06.500Z,53.60
2019-03-22T06:20:35.131Z,55.48
2019-03-22T06:23:03.994Z,55.73
2019-03-22T06:25:32.632Z,52.95
2019-03-22T06:28:01.254Z,52.95
2019-03-22T06:30:29.931Z,54.09
2019-03-22T06:32:58.558Z,54.81
2019-03-22T06:35:27.184Z,55.14
2019-03-22T06:37:55.851Z,55.14
2019-03-22T06:40:24.476Z,54.31
2019-03-22T06:42:53.093Z,55.77
2019-03-22T06:45:21.758Z,55.42
2019-03-22T06:47:50.391Z,54.64
2019-03-22T06:50:19.015Z,54.30
2019-03-22T06:52:47.670Z,56.57
2019-03-22T06:55:16.300Z,55.62
2019-03-22T06:57:44.927Z,55.13
2019-03-22T07:02:56.493Z,54.24
2019-03-22T07:05:25.122Z,54.19
2019-03-22T07:07:53.674Z,51.83
2019-03-22T07:10:22.403Z,51.76
2019-03-22T07:12:51.040Z,51.10
2019-03-22T07:15:19.666Z,52.71
2019-03-22T07:17:48.328Z,53.84
2019-03-22T07:20:16.968Z,53.00
2019-03-22T07:22:45.588Z,53.92
2019-03-22T07:25:14.271Z,52.49
2019-03-22T07:27:42.895Z,53.91
2019-03-22T07:30:18.964Z,53.62
2019-03-22T07:32:44.790Z,52.17
2019-03-22T07:35:13.533Z,52.17
2019-03-22T07:37:42.137Z,52.67
2019-03-22T07:40:12.119Z,51.15
2019-03-22T07:42:40.742Z,51.79
2019-03-22T07:45:12.010Z,52.30
2019-03-22T07:47:40.663Z,50.69
2019-03-22T07:50:11.468Z,49.75
2019-03-22T07:52:40.108Z,49.95
2019-03-22T07:55:08.867Z,48.73
2019-03-22T07:57:37.508Z,47.22
2019-03-22T08:00:08.875Z,46.66
2019-03-22T08:02:37.539Z,47.38
2019-03-22T08:05:07.380Z,47.71
2019-03-22T08:07:36.026Z,48.05
2019-03-22T08:10:06.867Z,49.10
2019-03-22T08:12:35.483Z,48.62
2019-03-22T08:15:08.208Z,47.85
2019-03-22T08:17:36.310Z,47.27
2019-03-22T08:20:07.034Z,47.83
2019-03-22T08:22:35.653Z,47.57
2019-03-22T08:25:04.713Z,48.31
2019-03-22T08:27:33.346Z,46.62
2019-03-22T08:30:01.976Z,44.94
2019-03-22T08:32:30.616Z,44.17
2019-03-22T08:34:59.292Z,45.61
2019-03-22T08:37:27.910Z,45.15
2019-03-22T08:39:56.501Z,46.18
2019-03-22T08:42:25.131Z,44.38
2019-03-22T08:44:53.735Z,45.43
2019-03-22T08:47:33.095Z,42.50
2019-03-22T08:49:52.746Z,42.61
2019-03-22T08:52:21.394Z,43.74
2019-03-22T08:54:50.047Z,42.67
2019-03-22T08:57:18.610Z,44.18
2019-03-22T08:59:47.254Z,44.56
2019-03-22T09:02:15.985Z,42.41
2019-03-22T09:04:44.684Z,40.79
2019-03-22T09:07:13.324Z,42.80
2019-03-22T09:09:42.101Z,42.64
2019-03-22T09:12:10.712Z,42.79
2019-03-22T09:14:39.291Z,41.54
2019-03-22T09:17:07.980Z,42.61
2019-03-22T09:19:36.618Z,40.71
2019-03-22T09:22:05.283Z,41.44
2019-03-22T09:24:39.105Z,40.71
2019-03-22T09:27:04.284Z,40.34
2019-03-22T09:29:32.940Z,39.11
2019-03-22T09:32:01.692Z,38.39
2019-03-22T09:34:33.935Z,38.12
2019-03-22T09:37:00.665Z,39.67
2019-03-22T09:39:29.294Z,39.75
2019-03-22T09:41:57.947Z,39.29
2019-03-22T09:44:28.231Z,39.92
2019-03-22T09:46:56.991Z,39.85
2019-03-22T09:49:25.665Z,39.43
2019-03-22T09:51:55.305Z,38.71
2019-03-22T09:54:24.073Z,38.50
2019-03-22T09:56:52.734Z,38.99
2019-03-22T09:59:21.347Z,40.51
2019-03-22T10:01:49.990Z,40.37
2019-03-22T10:04:18.711Z,39.37
2019-03-22T10:06:47.517Z,39.04
2019-03-22T10:09:16.131Z,38.97
2019-03-22T10:11:44.864Z,41.00
2019-03-22T10:14:13.443Z,41.02
2019-03-22T10:16:42.102Z,40.19
2019-03-22T10:19:10.723Z,39.40
2019-03-22T10:21:39.341Z,38.79
2019-03-22T10:24:08.037Z,39.10
2019-03-22T10:26:36.722Z,38.43
2019-03-22T10:29:06.922Z,38.13
2019-03-22T10:31:37.543Z,37.00
2019-03-22T10:34:06.095Z,37.63
2019-03-22T10:36:34.773Z,39.02
2019-03-22T10:39:04.317Z,38.13
2019-03-22T10:41:33.085Z,38.42
2019-03-22T10:44:01.650Z,38.29
2019-03-22T10:46:30.373Z,36.76
2019-03-22T10:48:59.004Z,36.73
2019-03-22T10:51:27.621Z,36.74
2019-03-22T10:53:56.303Z,36.18
2019-03-22T10:56:25.126Z,36.16
2019-03-22T10:58:53.703Z,35.33
2019-03-22T11:01:22.350Z,37.31
2019-03-22T11:03:51.227Z,37.45
2019-03-22T11:06:26.125Z,37.77
2019-03-22T11:08:50.250Z,36.92
2019-03-22T11:11:18.866Z,35.05
2019-03-22T11:13:47.563Z,35.04
2019-03-22T11:16:16.222Z,36.09
2019-03-22T11:18:44.847Z,35.05
2019-03-22T11:21:13.479Z,34.99
2019-03-22T11:23:42.129Z,36.64
2019-03-22T11:26:10.750Z,36.99
2019-03-22T11:28:39.375Z,36.18
2019-03-22T11:31:08.041Z,35.99
2019-03-22T11:33:36.671Z,34.75
2019-03-22T11:36:05.385Z,36.01
2019-03-22T11:38:34.043Z,34.81
2019-03-22T11:41:02.669Z,34.74
2019-03-22T11:43:31.294Z,34.86
2019-03-22T11:45:59.944Z,33.53
2019-03-22T11:48:28.564Z,34.00
2019-03-22T11:50:57.198Z,34.49
2019-03-22T11:53:25.895Z,33.55
2019-03-22T11:55:54.486Z,31.72
2019-03-22T11:58:23.106Z,30.85
2019-03-22T12:00:51.773Z,31.03
2019-03-22T12:03:20.393Z,32.43
2019-03-22T12:05:49.020Z,32.50
2019-03-22T12:08:17.675Z,31.74
2019-03-22T12:10:46.299Z,33.60
2019-03-22T12:13:14.924Z,33.37
2019-03-22T12:15:43.582Z,32.34
2019-03-22T12:18:12.204Z,32.25
2019-03-22T12:20:40.821Z,31.48
2019-03-22T12:23:09.481Z,32.15
2019-03-22T12:25:38.113Z,31.89
2019-03-22T12:28:06.740Z,32.29
2019-03-22T12:30:35.403Z,31.30
2019-03-22T12:33:04.017Z,30.01
2019-03-22T12:35:32.642Z,30.17
2019-03-22T12:38:01.297Z,30.38
2019-03-22T12:40:29.917Z,31.20
2019-03-22T12:42:58.551Z,30.83
2019-03-22T12:45:32.566Z,31.00
2019-03-22T12:48:01.192Z,32.51
2019-03-22T12:50:29.828Z,32.13
2019-03-22T12:52:58.479Z,30.51
2019-03-22T12:55:27.103Z,30.64
2019-03-22T12:57:55.731Z,29.97
2019-03-22T13:00:27.628Z,31.29
2019-03-22T13:02:56.469Z,31.99
2019-03-22T13:05:25.085Z,30.62
2019-03-22T13:07:53.756Z,30.89
2019-03-22T13:10:27.235Z,30.28
2019-03-22T13:12:56.052Z,30.49
2019-03-22T13:15:24.757Z,29.98
2019-03-22T13:17:53.357Z,30.90
2019-03-22T13:20:21.987Z,31.01
2019-03-22T13:42:54.085Z,29.20
2019-03-22T13:45:22.709Z,28.51
2019-03-22T13:47:51.335Z,27.62
2019-03-22T13:50:20.083Z,27.76
2019-03-22T13:52:48.710Z,26.81
2019-03-22T13:55:17.339Z,27.08
2019-03-22T13:57:46.008Z,27.66
2019-03-22T14:00:18.325Z,27.73
2019-03-22T14:02:46.947Z,27.79
2019-03-22T14:05:15.678Z,28.61
2019-03-22T14:07:44.317Z,28.03
2019-03-22T14:10:32.735Z,28.23
2019-03-22T14:13:02.654Z,27.38
2019-03-22T14:15:31.282Z,26.87
2019-03-22T14:18:00.123Z,26.79
2019-03-22T14:20:29.141Z,27.71
2019-03-22T14:22:57.763Z,28.29
2019-03-22T14:25:26.427Z,27.37
2019-03-22T14:27:55.052Z,27.80
2019-03-22T14:30:23.677Z,26.54
2019-03-22T14:32:52.327Z,27.91
2019-03-22T14:35:20.957Z,27.53
2019-03-22T14:37:49.584Z,26.72
2019-03-22T14:40:18.242Z,26.56
2019-03-22T14:42:46.881Z,26.61
2019-03-22T14:45:15.699Z,25.97
2019-03-22T14:47:44.379Z,26.14
2019-03-22T14:50:13.094Z,25.15
2019-03-22T14:52:41.727Z,25.93
2019-03-22T14:55:10.387Z,27.35
2019-03-22T14:57:48.173Z,28.20
2019-03-22T15:00:11.695Z,27.57
2019-03-22T15:02:40.352Z,27.95
2019-03-22T15:05:08.960Z,27.46
2019-03-22T15:07:37.687Z,27.73
2019-03-22T15:10:11.180Z,27.56
2019-03-22T15:12:39.814Z,28.10
2019-03-22T15:15:14.019Z,27.24
2019-03-22T15:17:59.231Z,26.99
2019-03-22T15:20:32.181Z,26.70
2019-03-22T15:23:02.438Z,27.12
2019-03-22T15:25:38.552Z,28.57
2019-03-22T15:28:24.988Z,29.04
2019-03-22T15:31:07.136Z,28.86
2019-03-22T15:33:37.473Z,28.97
2019-03-22T15:38:46.333Z,29.73
2019-03-22T15:41:15.047Z,31.04
2019-03-22T15:43:43.684Z,30.68
2019-03-22T15:46:12.358Z,30.07
2019-03-22T15:48:40.918Z,31.02
2019-03-22T15:51:09.604Z,30.57
2019-03-22T15:53:38.267Z,29.80
2019-03-22T15:56:06.889Z,30.79
2019-03-22T15:58:36.287Z,30.30
2019-03-22T16:01:05.758Z,30.92
2019-03-22T16:03:43.888Z,31.20
2019-03-22T16:06:04.717Z,31.15
2019-03-22T16:08:33.376Z,30.81
2019-03-22T16:11:01.998Z,31.47
2019-03-22T16:13:30.649Z,31.69
2019-03-22T16:15:59.290Z,30.26
2019-03-22T16:18:27.907Z,30.62
2019-03-22T16:21:00.006Z,31.65
2019-03-22T16:23:26.915Z,31.39
2019-03-22T16:25:55.536Z,31.40
2019-03-22T16:28:24.259Z,31.16
2019-03-22T16:30:53.196Z,31.44
2019-03-22T16:33:22.058Z,30.92
2019-03-22T16:35:50.898Z,30.45
2019-03-22T16:38:19.820Z,31.59
2019-03-22T16:40:48.705Z,31.58
2019-03-22T16:43:17.580Z,32.25
2019-03-22T16:45:46.494Z,32.90
2019-03-22T16:48:15.349Z,32.85
2019-03-22T16:50:44.200Z,32.01
2019-03-22T16:53:13.215Z,31.49
2019-03-22T16:55:42.071Z,32.19
2019-03-22T16:58:10.931Z,31.52
2019-03-22T17:00:40.342Z,31.15
2019-03-22T17:03:09.199Z,31.05
2019-03-22T17:05:38.455Z,31.52
2019-03-22T17:08:07.396Z,30.83
2019-03-22T17:10:36.247Z,31.66
2019-03-22T17:13:05.403Z,31.26
2019-03-22T17:15:34.317Z,32.20
2019-03-22T17:18:03.168Z,31.69
2019-03-22T17:20:32.016Z,31.29
2019-03-22T17:23:00.932Z,31.39
2019-03-22T17:25:29.806Z,31.44
2019-03-22T17:27:58.667Z,31.52
2019-03-22T17:30:27.606Z,31.87
2019-03-22T17:32:56.471Z,32.00
2019-03-22T17:35:25.322Z,32.17
2019-03-22T17:37:54.253Z,32.45
2019-03-22T17:40:23.122Z,32.71
2019-03-22T17:42:53.029Z,32.46
2019-03-22T17:45:22.388Z,32.25
2019-03-22T17:47:51.268Z,33.97
2019-03-22T17:50:20.358Z,33.12
2019-03-22T17:52:49.274Z,33.19
2019-03-22T17:55:18.327Z,33.25
2019-03-22T17:57:50.500Z,33.50
2019-03-22T18:00:21.820Z,33.14
2019-03-22T18:02:50.695Z,33.11
2019-03-22T18:05:19.573Z,33.19
2019-03-22T18:07:48.511Z,33.31
2019-03-22T18:10:17.373Z,33.25
2019-03-22T18:12:46.233Z,33.35
2019-03-22T18:15:15.165Z,33.14
2019-03-22T18:17:44.034Z,33.05
2019-03-22T18:20:14.957Z,33.31
2019-03-22T18:22:43.878Z,33.54
2019-03-22T18:25:12.926Z,33.44
2019-03-22T18:27:41.801Z,33.29
2019-03-22T18:30:15.067Z,33.60
2019-03-22T18:32:43.918Z,33.67
2019-03-22T18:35:13.103Z,33.82
2019-03-22T18:37:42.020Z,33.88
2019-03-22T18:40:12.712Z,33.82
2019-03-22T18:42:41.582Z,33.87
2019-03-22T18:45:14.726Z,33.83
2019-03-22T18:47:43.690Z,33.82
2019-03-22T18:50:14.064Z,33.60
2019-03-22T18:52:43.295Z,33.94
2019-03-22T18:55:12.238Z,33.50
2019-03-22T18:57:41.115Z,33.37
2019-03-22T19:00:18.430Z,33.30
2019-03-22T19:02:47.389Z,33.60
2019-03-22T19:05:16.747Z,33.63
2019-03-22T19:07:45.775Z,33.81
2019-03-22T19:10:16.263Z,33.48
2019-03-22T19:12:45.171Z,33.32
2019-03-22T19:15:14.726Z,33.52
2019-03-22T19:17:43.604Z,33.43
2019-03-22T19:20:13.759Z,33.71
2019-03-22T19:22:42.687Z,33.79
2019-03-22T19:25:15.526Z,33.56
2019-03-22T19:27:44.321Z,33.80
2019-03-22T19:30:14.655Z,33.88
2019-03-22T19:32:43.530Z,34.10
2019-03-22T19:35:13.196Z,33.68
2019-03-22T19:37:42.133Z,34.20
2019-03-22T19:40:13.603Z,34.04
2019-03-22T19:42:42.470Z,34.32
2019-03-22T19:45:13.988Z,34.15
2019-03-22T19:47:42.934Z,34.22
2019-03-22T19:50:14.283Z,34.60
2019-03-22T19:52:43.264Z,34.51
2019-03-22T19:55:14.010Z,34.59
2019-03-22T19:57:43.012Z,34.65
2019-03-22T20:00:19.871Z,35.40
2019-03-22T20:02:49.336Z,35.04
2019-03-22T20:05:24.294Z,35.11
2019-03-22T20:07:53.190Z,35.01
2019-03-22T20:10:22.089Z,34.85
2019-03-22T20:12:51.043Z,35.08
2019-03-22T20:15:20.006Z,35.18
2019-03-22T20:17:48.922Z,34.99
2019-03-22T20:20:17.976Z,34.73
2019-03-22T20:22:46.870Z,34.55
2019-03-22T20:25:15.820Z,34.25
2019-03-22T20:27:44.745Z,34.97
2019-03-22T20:30:15.805Z,34.73
2019-03-22T20:32:44.784Z,34.65
2019-03-22T20:35:16.599Z,34.66
2019-03-22T20:37:44.569Z,35.47
2019-03-22T20:40:16.573Z,35.25
2019-03-22T20:42:45.516Z,35.63
2019-03-22T20:45:23.691Z,35.65
2019-03-22T20:47:45.356Z,36.21
2019-03-22T20:50:14.657Z,35.65
2019-03-22T20:52:43.517Z,35.17
2019-03-22T20:55:12.575Z,34.83
2019-03-22T20:57:41.512Z,37.89
2019-03-22T21:00:19.253Z,37.94
2019-03-22T21:02:48.197Z,37.35
2019-03-22T21:05:26.358Z,36.51
2019-03-22T21:07:47.724Z,40.42
2019-03-22T21:10:16.644Z,42.63
2019-03-22T21:12:45.508Z,40.55
2019-03-22T21:15:23.769Z,39.98
2019-03-22T21:17:44.812Z,38.76
2019-03-22T21:20:13.440Z,38.05
2019-03-22T21:22:42.063Z,38.11
2019-03-22T21:25:11.325Z,37.62
2019-03-22T21:27:39.947Z,37.53
2019-03-22T21:30:10.731Z,37.58
2019-03-22T21:32:45.090Z,37.63
2019-03-22T21:35:09.862Z,37.61
2019-03-22T21:37:38.489Z,38.10
2019-03-22T21:40:08.129Z,38.29
2019-03-22T21:42:36.756Z,37.92
2019-03-22T21:45:08.962Z,37.91
2019-03-22T21:47:37.631Z,37.66
2019-03-22T21:50:08.356Z,37.83
2019-03-22T21:52:37.050Z,38.16
2019-03-22T21:55:07.417Z,38.25
2019-03-22T21:57:36.051Z,38.41
2019-03-22T22:00:06.948Z,37.79
2019-03-22T22:02:35.619Z,38.03
2019-03-22T22:05:05.745Z,37.75
2019-03-22T22:07:34.308Z,39.33
2019-03-22T22:10:03.358Z,38.56
2019-03-22T22:12:31.990Z,37.99
2019-03-22T22:15:00.625Z,37.98
2019-03-22T22:17:29.210Z,38.07
2019-03-22T22:19:57.837Z,37.74
2019-03-22T22:22:26.475Z,37.54
2019-03-22T22:24:55.066Z,37.71
2019-03-22T22:27:23.626Z,37.96
2019-03-22T22:29:52.254Z,37.66
2019-03-22T22:32:21.143Z,37.19
2019-03-22T22:34:49.839Z,38.12
2019-03-22T22:37:18.472Z,37.74
2019-03-22T22:39:47.149Z,37.68
2019-03-22T22:42:15.770Z,36.84
2019-03-22T22:44:44.401Z,36.87
2019-03-22T22:47:13.068Z,36.78
2019-03-22T22:49:41.636Z,36.53
2019-03-22T22:52:10.267Z,36.67
2019-03-22T22:54:38.924Z,36.87
2019-03-22T22:57:10.387Z,36.95
2019-03-22T22:59:39.025Z,37.10
2019-03-22T23:02:07.758Z,35.32
2019-03-22T23:04:36.378Z,36.53
2019-03-22T23:07:05.011Z,36.17
2019-03-22T23:09:33.640Z,35.72
2019-03-22T23:12:02.234Z,35.09
2019-03-22T23:14:30.858Z,35.25
2019-03-22T23:16:59.536Z,35.12
2019-03-22T23:19:28.241Z,35.36
2019-03-22T23:21:56.866Z,35.42
2019-03-22T23:24:25.527Z,35.58
2019-03-22T23:26:54.164Z,35.21
2019-03-22T23:29:22.790Z,35.45
2019-03-22T23:31:51.474Z,34.69
2019-03-22T23:34:20.101Z,34.55
2019-03-22T23:36:48.732Z,34.66
2019-03-22T23:39:17.381Z,34.96
2019-03-22T23:41:46.024Z,35.08
2019-03-22T23:44:14.649Z,34.70
2019-03-22T23:46:43.301Z,34.79
2019-03-22T23:49:11.922Z,34.54
2019-03-22T23:51:40.628Z,35.08
2019-03-22T23:54:09.295Z,34.20
2019-03-22T23:56:37.851Z,34.22
2019-03-22T23:59:06.492Z,34.17
